Time;durP1;ratioP1;P1;durP2;ratioP2;P2;SDS_P1;SDS_P2;PMS_P1;PMS_P2;Temp;Humidity;BMP_temperature;BMP_pressure;BME280_temperature;BME280_humidity;BME280_pressure;Samples;Min_cycle;Max_cycle;Signal;HPM_P1;HPM_P2
2022/09/19 00:02:04;;;;;;;8.75;2.33;;;;;;;9.66;100.00;101437.94;4978735;28;20057;-80
2022/09/19 00:04:35;;;;;;;9.32;2.10;;;;;;;9.64;100.00;101440.56;4978763;28;20038;-81
2022/09/19 00:07:04;;;;;;;9.10;2.08;;;;;;;9.64;100.00;101434.41;4994423;28;20060;-80
2022/09/19 00:09:33;;;;;;;9.93;1.73;;;;;;;9.63;100.00;101448.44;4945792;28;20057;-81
2022/09/19 00:12:02;;;;;;;11.02;1.83;;;;;;;9.63;100.00;101441.41;5010692;28;20524;-80
2022/09/19 00:14:33;;;;;;;10.55;1.83;;;;;;;9.61;100.00;101435.25;5007060;28;20030;-80
2022/09/19 00:17:07;;;;;;;6.72;2.08;;;;;;;9.63;100.00;101433.53;4989349;28;20045;-80
2022/09/19 00:19:37;;;;;;;7.90;2.13;;;;;;;9.63;100.00;101440.53;5005498;28;20054;-80
2022/09/19 00:22:09;;;;;;;10.93;2.00;;;;;;;9.62;100.00;101442.31;5008129;28;20049;-82
2022/09/19 00:24:46;;;;;;;18.98;2.38;;;;;;;9.63;100.00;101448.44;5005144;28;20038;-81
2022/09/19 00:27:23;;;;;;;10.32;2.15;;;;;;;9.65;100.00;101444.09;5001962;28;20398;-79
2022/09/19 00:29:53;;;;;;;10.32;2.20;;;;;;;9.68;100.00;101442.38;5008485;28;20089;-79
2022/09/19 00:32:23;;;;;;;11.97;2.50;;;;;;;9.71;100.00;101433.66;4962524;28;20534;-81
2022/09/19 00:34:55;;;;;;;12.52;2.25;;;;;;;9.72;100.00;101445.97;5005645;28;20057;-81
2022/09/19 00:37:26;;;;;;;9.73;2.08;;;;;;;9.72;100.00;101451.22;4994481;28;20064;-80
2022/09/19 00:39:55;;;;;;;10.88;2.05;;;;;;;9.74;100.00;101452.13;4951885;28;20058;-81
2022/09/19 00:42:24;;;;;;;9.30;2.55;;;;;;;9.73;100.00;101450.34;4926134;28;20194;-81
2022/09/19 00:44:54;;;;;;;13.65;2.65;;;;;;;9.72;100.00;101448.59;4963134;28;20047;-80
2022/09/19 00:47:29;;;;;;;11.90;2.75;;;;;;;9.70;100.00;101456.47;4933980;28;20406;-80
2022/09/19 00:50:00;;;;;;;15.35;2.40;;;;;;;9.72;100.00;101459.13;4971739;28;20047;-82
2022/09/19 00:52:51;;;;;;;11.27;2.20;;;;;;;9.78;100.00;101460.97;4950356;28;20153;-80
2022/09/19 00:55:20;;;;;;;;;;;;;;;9.80;100.00;101467.13;4967804;28;20269;-80
2022/09/19 00:58:01;;;;;;;10.77;1.83;;;;;;;9.81;100.00;101464.53;4950069;28;20363;-81
2022/09/19 01:00:30;;;;;;;14.65;3.20;;;;;;;9.86;100.00;101465.47;4951711;28;20162;-80
2022/09/19 01:02:58;;;;;;;17.40;2.80;;;;;;;9.91;100.00;101465.56;4933487;28;20506;-80
2022/09/19 01:05:49;;;;;;;17.60;3.35;;;;;;;10.00;100.00;101476.25;4945795;29;20266;-81
2022/09/19 01:08:44;;;;;;;17.40;2.85;;;;;;;10.18;100.00;101464.22;4942902;28;20062;-79
2022/09/19 01:11:37;;;;;;;20.23;3.95;;;;;;;10.36;100.00;101459.25;4974906;28;20049;-80
2022/09/19 01:14:25;;;;;;;19.88;3.13;;;;;;;10.52;100.00;101465.59;5010228;28;20041;-80
2022/09/19 01:17:16;;;;;;;19.65;4.32;;;;;;;10.65;100.00;101453.47;4996354;28;20060;-80
2022/09/19 01:19:47;;;;;;;;;;;;;;;10.75;100.00;101467.63;4961442;28;20068;-79
2022/09/19 01:22:25;;;;;;;17.23;3.20;;;;;;;10.81;100.00;101465.97;5023151;28;20456;-79
2022/09/19 01:25:33;;;;;;;11.30;2.25;;;;;;;10.91;100.00;101467.84;5015073;28;20397;-80
2022/09/19 01:28:21;;;;;;;16.80;4.07;;;;;;;10.99;100.00;101453.88;5012155;28;20397;-80
2022/09/19 01:31:19;;;;;;;22.38;5.35;;;;;;;11.09;100.00;101476.81;4988374;28;20057;-79
2022/09/19 01:33:52;;;;;;;17.67;3.40;;;;;;;11.15;100.00;101476.88;5025650;28;20037;-81
2022/09/19 01:36:31;;;;;;;22.98;3.90;;;;;;;11.21;100.00;101474.34;4962024;28;20311;-81
2022/09/19 01:39:03;;;;;;;19.67;4.20;;;;;;;11.27;100.00;101490.22;4996260;28;20049;-80
2022/09/19 01:41:37;;;;;;;20.90;3.83;;;;;;;11.30;100.00;101490.28;5005771;28;20041;-80
2022/09/19 01:44:16;;;;;;;17.52;3.47;;;;;;;11.34;100.00;101490.28;4990682;28;20527;-79
2022/09/19 01:47:11;;;;;;;18.33;3.25;;;;;;;11.35;100.00;101487.66;4996755;28;20049;-80
2022/09/19 01:50:08;;;;;;;13.97;2.77;;;;;;;11.35;100.00;101477.09;4965880;28;20033;-81
2022/09/19 01:53:00;;;;;;;14.98;3.55;;;;;;;11.35;100.00;101484.16;5006519;28;20042;-80
2022/09/19 01:55:52;;;;;;;12.00;2.85;;;;;;;11.36;100.00;101491.19;4992251;28;20060;-80
2022/09/19 01:58:37;;;;;;;22.70;3.50;;;;;;;11.36;100.00;101476.25;4990178;28;20282;-81
2022/09/19 02:01:29;;;;;;;22.80;3.70;;;;;;;11.36;100.00;101484.16;4987152;28;20050;-80
2022/09/19 02:04:28;;;;;;;13.80;3.30;;;;;;;11.37;100.00;101483.28;4995856;28;20045;-80
2022/09/19 02:07:01;;;;;;;18.73;3.50;;;;;;;11.38;100.00;101478.88;4962123;28;20167;-80
2022/09/19 02:09:50;;;;;;;16.58;3.97;;;;;;;11.38;100.00;101478.88;4993869;28;20072;-79
2022/09/19 02:12:23;;;;;;;20.67;3.38;;;;;;;11.38;100.00;101476.25;4993307;28;20260;-79
2022/09/19 02:14:57;;;;;;;19.08;4.25;;;;;;;11.39;100.00;101478.03;5009770;28;20041;-81
2022/09/19 02:17:44;;;;;;;14.70;2.70;;;;;;;11.40;100.00;101475.41;5012848;28;20045;-81
2022/09/19 02:20:26;;;;;;;19.80;3.05;;;;;;;11.42;100.00;101473.66;5029704;28;20037;-81
2022/09/19 02:23:02;;;;;;;19.88;3.05;;;;;;;11.44;100.00;101485.13;4983057;28;20034;-80
2022/09/19 02:25:34;;;;;;;18.08;2.85;;;;;;;11.45;100.00;101484.22;4998986;28;20037;-81
2022/09/19 02:28:11;;;;;;;12.07;2.90;;;;;;;11.49;100.00;101479.88;4980700;28;20049;-80
2022/09/19 02:30:44;;;;;;;20.10;2.95;;;;;;;11.51;100.00;101488.69;5008171;28;20490;-81
2022/09/19 02:33:15;;;;;;;28.55;3.88;;;;;;;11.52;100.00;101479.91;4987409;28;20049;-81
2022/09/19 02:35:50;;;;;;;13.57;3.38;;;;;;;11.52;100.00;101479.91;5015117;28;20045;-82
2022/09/19 02:38:49;;;;;;;16.55;3.10;;;;;;;11.54;100.00;101486.09;4968901;28;20151;-81
2022/09/19 02:41:43;;;;;;;14.30;3.35;;;;;;;11.55;100.00;101494.88;5011033;28;20057;-81
2022/09/19 02:44:52;;;;;;;17.10;4.13;;;;;;;11.55;100.00;101498.44;5009428;28;20041;-81
2022/09/19 02:47:55;;;;;;;21.27;2.72;;;;;;;11.56;100.00;101500.19;4989447;28;20054;-81
2022/09/19 02:50:48;;;;;;;14.82;2.78;;;;;;;11.55;100.00;101500.16;5006831;28;20073;-82
2022/09/19 02:53:26;;;;;;;18.38;3.45;;;;;;;11.55;100.00;101501.06;4968070;28;20259;-81
2022/09/19 02:56:02;;;;;;;13.45;3.05;;;;;;;11.55;100.00;101495.78;5013275;28;20034;-80
2022/09/19 02:58:38;;;;;;;14.20;2.88;;;;;;;11.54;100.00;101495.78;5013629;28;20038;-80
2022/09/19 03:01:15;;;;;;;18.05;3.47;;;;;;;11.53;100.00;101500.19;4992444;28;20053;-82
2022/09/19 03:04:12;;;;;;;13.13;3.47;;;;;;;11.51;100.00;101501.88;4988912;28;20490;-79
2022/09/19 03:06:53;;;;;;;14.52;3.08;;;;;;;11.49;100.00;101508.91;4979574;28;20060;-80
2022/09/19 03:09:25;;;;;;;19.55;3.60;;;;;;;11.46;100.00;101503.63;4977064;28;20453;-80
2022/09/19 03:12:18;;;;;;;19.52;2.78;;;;;;;11.43;100.00;101500.94;5012215;28;20052;-82
2022/09/19 03:14:55;;;;;;;19.42;2.78;;;;;;;11.41;100.00;101502.69;5009097;28;20053;-82
2022/09/19 03:17:31;;;;;;;16.98;4.28;;;;;;;11.41;100.00;101507.94;4989634;28;20585;-81
2022/09/19 03:20:02;;;;;;;17.90;2.90;;;;;;;11.42;100.00;101510.63;4990243;28;20461;-80
2022/09/19 03:22:41;;;;;;;14.73;2.63;;;;;;;11.44;100.00;101511.50;4994940;28;20406;-81
2022/09/19 03:25:14;;;;;;;14.73;2.97;;;;;;;11.45;100.00;101512.38;4982401;28;20050;-81
2022/09/19 03:27:43;;;;;;;23.42;3.90;;;;;;;11.46;100.00;101512.41;5015236;28;20041;-81
2022/09/19 03:30:15;;;;;;;19.33;2.88;;;;;;;11.46;100.00;101522.09;4990235;28;20078;-80
2022/09/19 03:32:48;;;;;;;10.88;2.50;;;;;;;11.47;100.00;101519.47;4968625;28;20044;-80
2022/09/19 03:35:21;;;;;;;18.83;3.58;;;;;;;11.48;100.00;101520.34;5000353;28;20049;-80
2022/09/19 03:37:50;;;;;;;12.88;2.97;;;;;;;11.49;100.00;101530.00;4995617;28;20049;-81
2022/09/19 03:40:22;;;;;;;;;;;;;;;11.49;100.00;101532.66;4961553;28;20033;-80
2022/09/19 03:42:52;;;;;;;8.63;1.63;;;;;;;11.47;100.00;101545.88;5007272;28;19929;-80
2022/09/19 03:45:25;;;;;;;6.43;2.08;;;;;;;11.47;100.00;101539.69;5002734;28;20050;-79
2022/09/19 03:47:55;;;;;;;11.88;2.85;;;;;;;11.47;100.00;101537.03;5022344;28;20045;-80
2022/09/19 03:50:23;;;;;;;6.22;1.58;;;;;;;11.46;100.00;101544.06;4989390;28;20279;-81
2022/09/19 03:53:07;;;;;;;9.05;1.80;;;;;;;11.44;100.00;101537.91;4984213;28;20045;-80
2022/09/19 03:55:37;;;;;;;8.30;1.60;;;;;;;11.44;100.00;101539.66;4955078;28;20052;-81
2022/09/19 03:58:12;;;;;;;15.02;2.20;;;;;;;11.43;100.00;101544.03;4995668;28;20041;-81
2022/09/19 04:00:41;;;;;;;7.15;1.80;;;;;;;11.44;100.00;101537.91;4975417;28;20045;-81
2022/09/19 04:03:12;;;;;;;16.67;2.67;;;;;;;11.45;100.00;101538.78;4987446;28;20048;-81
2022/09/19 04:05:42;;;;;;;12.05;1.77;;;;;;;11.46;100.00;101541.44;4980259;28;20045;-82
2022/09/19 04:08:11;;;;;;;15.37;2.67;;;;;;;11.47;100.00;101539.69;4991864;28;20239;-80
2022/09/19 04:10:42;;;;;;;14.00;2.22;;;;;;;11.48;100.00;101550.25;4951758;28;20312;-80
2022/09/19 04:13:11;;;;;;;11.75;2.10;;;;;;;11.50;100.00;101550.28;5006047;28;20168;-82
2022/09/19 04:15:42;;;;;;;14.52;2.58;;;;;;;11.52;100.00;101557.34;4993488;28;20037;-81
2022/09/19 04:18:12;;;;;;;15.63;2.28;;;;;;;11.54;100.00;101556.47;5006561;28;20155;-82
2022/09/19 04:20:41;;;;;;;16.60;3.08;;;;;;;11.56;100.00;101552.97;4992480;28;20029;-82
2022/09/19 04:23:45;;;;;;;11.23;2.45;;;;;;;11.58;100.00;101556.50;5024440;28;20037;-82
2022/09/19 04:26:50;;;;;;;12.55;2.83;;;;;;;11.61;100.00;101564.47;4909679;28;20432;-82
2022/09/19 04:29:19;;;;;;;11.52;2.75;;;;;;;11.62;100.00;101557.44;4988616;28;20049;-81
2022/09/19 04:31:49;;;;;;;11.80;2.75;;;;;;;11.62;100.00;101560.94;5017146;28;20041;-82
2022/09/19 04:34:18;;;;;;;22.45;3.03;;;;;;;11.62;100.00;101558.31;5005176;28;20588;-81
2022/09/19 04:36:51;;;;;;;15.57;2.78;;;;;;;11.64;100.00;101553.06;5006977;28;20038;-83
2022/09/19 04:39:20;;;;;;;14.40;3.33;;;;;;;11.65;100.00;101560.13;4990672;28;20029;-81
2022/09/19 04:41:52;;;;;;;17.95;3.10;;;;;;;11.67;100.00;101563.66;4949324;28;20045;-79
2022/09/19 04:44:21;;;;;;;17.05;3.38;;;;;;;11.68;100.00;101575.97;4992307;28;20437;-80
2022/09/19 04:47:06;;;;;;;18.92;2.83;;;;;;;11.70;100.00;101563.66;4996505;28;20033;-79
2022/09/19 04:49:39;;;;;;;16.20;3.63;;;;;;;11.70;100.00;101572.50;5008795;28;20038;-81
2022/09/19 04:52:28;;;;;;;16.50;2.85;;;;;;;11.69;100.00;101562.78;5004499;28;22958;-82
2022/09/19 04:54:57;;;;;;;17.30;3.55;;;;;;;11.69;100.00;101569.84;4998148;28;20033;-81
2022/09/19 04:57:27;;;;;;;16.80;3.13;;;;;;;11.68;100.00;101576.88;4980629;28;20053;-81
2022/09/19 05:00:00;;;;;;;18.90;3.53;;;;;;;11.66;100.00;101578.63;5017564;28;20045;-81
2022/09/19 05:02:31;;;;;;;19.90;3.40;;;;;;;11.65;100.00;101568.91;5009344;28;20160;-81
2022/09/19 05:05:01;;;;;;;16.77;3.72;;;;;;;11.64;100.00;101575.03;5010430;28;20052;-81
2022/09/19 05:07:33;;;;;;;20.33;3.72;;;;;;;11.65;100.00;101582.13;4989180;28;20060;-81
2022/09/19 05:10:04;;;;;;;17.15;2.92;;;;;;;11.66;100.00;101581.25;4984678;28;20125;-81
2022/09/19 05:12:37;;;;;;;14.07;2.45;;;;;;;11.69;100.00;101583.91;4969572;28;20375;-82
2022/09/19 05:15:08;;;;;;;17.33;3.03;;;;;;;11.71;100.00;101581.28;4961521;28;20053;-81
2022/09/19 05:17:37;;;;;;;12.45;2.80;;;;;;;11.75;100.00;101585.72;5003652;28;20033;-81
2022/09/19 05:20:07;;;;;;;15.00;3.13;;;;;;;11.76;100.00;101598.06;4966326;28;20045;-82
2022/09/19 05:22:36;;;;;;;15.88;3.25;;;;;;;11.79;100.00;101605.13;4996550;28;20045;-81
2022/09/19 05:25:09;;;;;;;17.83;3.25;;;;;;;11.80;100.00;101599.00;5009221;28;20041;-81
2022/09/19 05:27:40;;;;;;;21.20;3.97;;;;;;;11.83;100.00;101596.38;4990450;28;20116;-81
2022/09/19 05:30:11;;;;;;;21.58;4.45;;;;;;;11.83;100.00;101599.00;4996634;28;20048;-81
2022/09/19 05:32:44;;;;;;;15.25;2.67;;;;;;;11.83;100.00;101591.09;4994155;28;20514;-81
2022/09/19 05:35:24;;;;;;;11.88;2.17;;;;;;;11.82;100.00;101600.78;4978030;28;20406;-82
2022/09/19 05:38:14;;;;;;;;;;;;;;;11.81;100.00;101603.38;5001543;28;20034;-80
2022/09/19 05:41:05;;;;;;;13.75;3.00;;;;;;;11.79;100.00;101613.06;4989656;28;19921;-82
2022/09/19 05:43:51;;;;;;;20.05;2.88;;;;;;;11.79;100.00;101613.94;4983244;28;20061;-82
2022/09/19 05:46:20;;;;;;;14.27;2.60;;;;;;;11.79;100.00;101611.28;5018027;28;20050;-82
2022/09/19 05:48:52;;;;;;;14.70;2.72;;;;;;;11.81;100.00;101614.81;4998677;28;20129;-81
2022/09/19 05:51:21;;;;;;;10.63;2.25;;;;;;;11.83;100.00;101613.13;5011209;28;20037;-82
2022/09/19 05:53:52;;;;;;;14.05;3.95;;;;;;;11.86;100.00;101617.53;4974651;28;20049;-83
2022/09/19 05:56:56;;;;;;;13.10;2.83;;;;;;;11.87;100.00;101616.66;4997787;28;20061;-81
2022/09/19 05:59:25;;;;;;;18.95;3.50;;;;;;;11.90;100.00;101616.72;4959316;28;20154;-81
2022/09/19 06:01:53;;;;;;;13.57;2.08;;;;;;;11.90;100.00;101609.69;4982587;28;20054;-81
2022/09/19 06:04:39;;;;;;;14.38;2.60;;;;;;;11.91;100.00;101613.22;4988047;28;20033;-81
2022/09/19 06:07:13;;;;;;;13.90;2.45;;;;;;;11.91;100.00;101615.88;5005375;28;20521;-80
2022/09/19 06:09:44;;;;;;;16.55;3.03;;;;;;;11.90;100.00;101616.72;5008148;28;20255;-81
2022/09/19 06:12:13;;;;;;;15.20;2.73;;;;;;;11.91;100.00;101626.44;4991051;28;20033;-81
2022/09/19 06:14:42;;;;;;;18.48;3.63;;;;;;;11.91;100.00;101621.16;4976482;28;20041;-81
2022/09/19 06:17:15;;;;;;;11.70;2.28;;;;;;;11.93;100.00;101627.31;4964409;28;20406;-80
2022/09/19 06:19:55;;;;;;;14.77;3.03;;;;;;;11.95;100.00;101637.91;4993943;28;20049;-81
2022/09/19 06:22:36;;;;;;;20.17;3.15;;;;;;;11.95;100.00;101640.56;4990701;28;20295;-81
2022/09/19 06:25:05;;;;;;;14.63;2.35;;;;;;;11.95;100.00;101641.44;5007023;28;20034;-83
2022/09/19 06:27:38;;;;;;;24.67;3.38;;;;;;;11.95;100.00;101649.34;4978243;28;20057;-81
2022/09/19 06:30:07;;;;;;;10.10;2.20;;;;;;;11.95;100.00;101637.91;5016629;28;20048;-81
2022/09/19 06:33:05;;;;;;;15.27;2.92;;;;;;;11.96;100.00;101640.53;5008843;28;20033;-81
2022/09/19 06:35:43;;;;;;;13.45;2.40;;;;;;;11.97;100.00;101641.47;4983953;28;20053;-81
2022/09/19 06:38:11;;;;;;;18.33;3.40;;;;;;;12.00;100.00;101652.03;4988626;28;20042;-80
2022/09/19 06:40:40;;;;;;;17.33;2.85;;;;;;;12.04;100.00;101665.31;4967058;28;20049;-80
2022/09/19 06:43:38;;;;;;;21.00;4.57;;;;;;;12.09;100.00;101658.28;4999498;28;20057;-81
2022/09/19 06:46:19;;;;;;;14.50;2.67;;;;;;;12.17;100.00;101654.84;4968173;28;20045;-81
2022/09/19 06:49:11;;;;;;;16.23;2.78;;;;;;;12.25;100.00;101650.53;5016104;28;20072;-80
2022/09/19 06:51:50;;;;;;;14.65;3.10;;;;;;;12.31;100.00;101657.63;5006330;28;20057;-81
2022/09/19 06:54:21;;;;;;;9.75;2.38;;;;;;;12.48;100.00;101664.81;4995715;28;20033;-81
2022/09/19 06:56:51;;;;;;;15.95;2.10;;;;;;;12.84;100.00;101671.25;4979191;28;20124;-81
2022/09/19 06:59:21;;;;;;;19.13;2.58;;;;;;;13.02;100.00;101667.88;4993051;28;20042;-81
2022/09/19 07:01:50;;;;;;;14.93;2.85;;;;;;;13.10;100.00;101675.84;4969192;28;20037;-81
2022/09/19 07:04:20;;;;;;;12.35;2.72;;;;;;;13.20;100.00;101675.00;5016556;28;20045;-80
2022/09/19 07:06:57;;;;;;;24.02;4.22;;;;;;;13.32;100.00;101668.06;5020950;28;20314;-80
2022/09/19 07:09:26;;;;;;;20.60;3.13;;;;;;;13.47;100.00;101670.75;4996968;28;20040;-81
2022/09/19 07:11:56;;;;;;;17.20;2.85;;;;;;;13.52;100.00;101676.97;4985871;28;20050;-81
2022/09/19 07:14:29;;;;;;;16.63;2.50;;;;;;;13.58;100.00;101679.63;4959626;28;20056;-81
2022/09/19 07:16:59;;;;;;;10.80;2.88;;;;;;;13.88;100.00;101683.28;4963770;28;20358;-81
2022/09/19 07:19:29;;;;;;;19.80;4.00;;;;;;;14.24;100.00;101678.94;4938397;28;20546;-81
2022/09/19 07:22:36;;;;;;;15.13;4.05;;;;;;;14.59;100.00;101676.34;4921019;28;20051;-82
2022/09/19 07:25:20;;;;;;;16.73;3.30;;;;;;;14.80;100.00;101678.09;4953601;28;20054;-79
2022/09/19 07:28:04;;;;;;;12.93;3.40;;;;;;;15.12;100.00;101681.56;4938595;28;20063;-80
2022/09/19 07:30:35;;;;;;;14.35;2.90;;;;;;;15.51;100.00;101685.00;4929363;28;20050;-80
2022/09/19 07:33:06;;;;;;;15.38;3.25;;;;;;;15.77;100.00;101676.94;4922242;28;20260;-80
2022/09/19 07:35:37;;;;;;;15.45;3.35;;;;;;;15.78;100.00;101682.25;4941482;28;20043;-81
2022/09/19 07:38:06;;;;;;;;;;;;;;;15.89;100.00;101687.50;4938986;28;20074;-81
2022/09/19 07:41:12;;;;;;;16.23;3.10;;;;;;;15.96;100.00;101691.91;4908242;29;20160;-81
2022/09/19 07:44:05;;;;;;;12.02;2.67;;;;;;;15.86;100.00;101692.84;4915982;28;20173;-82
2022/09/19 07:50:05;;;;;;;11.50;2.97;;;;;;;15.29;100.00;101705.41;4917165;28;20037;-80
2022/09/19 07:52:38;;;;;;;12.45;2.30;;;;;;;15.16;100.00;101710.78;4984664;28;20129;-79
2022/09/19 07:55:11;;;;;;;12.13;2.75;;;;;;;15.41;100.00;101721.34;5003422;28;20594;-80
2022/09/19 07:57:50;;;;;;;12.75;2.35;;;;;;;15.75;100.00;101706.19;4989117;28;20038;-80
2022/09/19 08:00:22;;;;;;;12.57;2.80;;;;;;;15.92;100.00;101706.09;4987762;28;20044;-79
2022/09/19 08:03:03;;;;;;;10.95;2.60;;;;;;;15.87;100.00;101707.88;4992253;28;20240;-80
2022/09/19 08:05:42;;;;;;;16.75;3.13;;;;;;;15.73;100.00;101725.66;4966415;28;20042;-82
2022/09/19 08:08:13;;;;;;;10.85;2.50;;;;;;;15.86;100.00;101710.53;5012307;28;20632;-80
2022/09/19 08:10:44;;;;;;;17.63;3.50;;;;;;;16.16;100.00;101709.50;5004657;28;20052;-80
2022/09/19 08:13:18;;;;;;;12.63;2.85;;;;;;;16.54;100.00;101703.94;4989582;28;20786;-80
2022/09/19 08:15:50;;;;;;;17.30;2.42;;;;;;;16.76;100.00;101709.06;4997431;28;20034;-80
2022/09/19 08:18:26;;;;;;;10.18;3.00;;;;;;;16.80;100.00;101716.09;4987084;28;20399;-81
2022/09/19 08:20:55;;;;;;;15.75;2.65;;;;;;;16.83;100.00;101721.44;4952784;28;20291;-82
2022/09/19 08:23:26;;;;;;;10.68;2.05;;;;;;;16.86;100.00;101731.19;4974091;28;20051;-79
2022/09/19 08:25:56;;;;;;;13.15;3.15;;;;;;;16.74;100.00;101726.81;4961978;28;20047;-81
2022/09/19 08:28:25;;;;;;;10.68;2.45;;;;;;;16.69;100.00;101731.28;4985396;28;20038;-81
2022/09/19 08:31:00;;;;;;;12.45;2.65;;;;;;;16.76;100.00;101735.66;4985657;28;20715;-80
2022/09/19 08:33:32;;;;;;;13.48;2.55;;;;;;;16.89;100.00;101741.81;4970909;28;20038;-81
2022/09/19 08:36:01;;;;;;;18.40;3.00;;;;;;;16.80;100.00;101739.19;4929845;28;20050;-82
2022/09/19 08:38:33;;;;;;;9.45;2.28;;;;;;;16.65;100.00;101759.69;5005508;28;20038;-82
2022/09/19 08:41:21;;;;;;;15.85;3.20;;;;;;;16.45;100.00;101751.88;4966277;28;20042;-82
2022/09/19 08:43:53;;;;;;;10.73;2.20;;;;;;;16.36;100.00;101762.56;4967848;28;20031;-81
2022/09/19 08:46:33;;;;;;;8.35;2.17;;;;;;;16.38;100.00;101761.66;4984749;28;20050;-80
2022/09/19 08:49:13;;;;;;;9.60;2.75;;;;;;;16.59;100.00;101759.75;4974848;28;20042;-82
2022/09/19 08:51:59;;;;;;;9.63;2.33;;;;;;;16.80;100.00;101755.16;4976319;28;20063;-81
2022/09/19 08:54:38;;;;;;;9.65;2.47;;;;;;;16.82;100.00;101767.59;4972730;28;20426;-81
2022/09/19 08:57:19;;;;;;;10.35;2.03;;;;;;;16.99;100.00;101764.78;4998201;28;20073;-81
2022/09/19 08:59:50;;;;;;;15.40;3.00;;;;;;;17.04;100.00;101778.94;4953750;28;20058;-81
2022/09/19 09:02:38;;;;;;;13.07;2.80;;;;;;;16.87;100.00;101778.22;4985003;28;20050;-80
2022/09/19 09:05:48;;;;;;;13.68;2.63;;;;;;;16.77;100.00;101780.03;5000455;28;20026;-82
2022/09/19 09:08:43;;;;;;;7.40;1.85;;;;;;;16.68;100.00;101780.09;4952407;28;20046;-79
2022/09/19 09:11:39;;;;;;;13.90;2.78;;;;;;;16.52;100.00;101784.63;5005016;28;20038;-80
2022/09/19 09:14:30;;;;;;;10.52;2.30;;;;;;;16.31;100.00;101785.66;4983322;28;20691;-80
2022/09/19 09:17:27;;;;;;;5.13;1.83;;;;;;;16.04;100.00;101784.91;4937060;28;20755;-81
2022/09/19 09:20:27;;;;;;;9.65;2.42;;;;;;;15.91;100.00;101784.06;4992260;28;20047;-81
2022/09/19 09:23:15;;;;;;;11.80;2.25;;;;;;;15.83;100.00;101785.00;4954832;28;20054;-80
2022/09/19 09:26:14;;;;;;;7.88;2.35;;;;;;;15.76;100.00;101782.38;5011154;28;21711;-80
2022/09/19 09:28:52;;;;;;;10.15;2.25;;;;;;;15.74;100.00;101784.13;5010799;28;20041;-79
2022/09/19 09:31:44;;;;;;;7.70;2.28;;;;;;;15.81;100.00;101778.81;5001974;28;20040;-80
2022/09/19 09:34:58;;;;;;;12.20;2.30;;;;;;;15.87;100.00;101766.34;5003852;28;20041;-81
2022/09/19 09:37:43;;;;;;;12.82;2.15;;;;;;;15.89;100.00;101772.56;5030463;28;20041;-80
2022/09/19 09:43:20;;;;;;;14.55;3.22;;;;;;;16.10;100.00;101774.22;5029341;28;20493;-81
2022/09/19 09:45:57;;;;;;;11.07;3.33;;;;;;;16.23;100.00;101777.72;5003495;28;20040;-80
2022/09/19 09:48:34;;;;;;;15.30;2.75;;;;;;;16.42;100.00;101774.94;4992076;28;20041;-81
2022/09/19 09:51:41;;;;;;;12.68;2.55;;;;;;;16.47;100.00;101779.34;5016299;28;20270;-81
2022/09/19 09:57:36;;;;;;;13.32;2.90;;;;;;;16.19;100.00;101781.28;5011315;28;20053;-79
2022/09/19 10:03:34;;;;;;;13.65;2.53;;;;;;;15.82;100.00;101788.53;4986062;28;22572;-80
2022/09/19 10:06:52;;;;;;;11.57;2.85;;;;;;;15.68;100.00;101789.44;5026683;28;20061;-80
2022/09/19 10:09:30;;;;;;;12.48;2.83;;;;;;;15.62;100.00;101788.56;4957025;28;20045;-79
2022/09/19 10:12:15;;;;;;;10.02;2.53;;;;;;;15.53;100.00;101790.34;5008617;28;20311;-79
2022/09/19 10:15:13;;;;;;;11.93;2.80;;;;;;;15.49;100.00;101793.03;5010320;28;20418;-81
2022/09/19 10:18:14;;;;;;;8.38;2.17;;;;;;;15.48;100.00;101793.91;4990100;28;20514;-80
2022/09/19 10:21:02;;;;;;;13.45;2.78;;;;;;;15.37;100.00;101802.78;5006771;28;20256;-81
2022/09/19 10:23:35;;;;;;;14.75;3.25;;;;;;;15.27;100.00;101808.97;5002773;28;20379;-82
2022/09/19 10:26:15;;;;;;;15.02;2.60;;;;;;;15.08;100.00;101824.03;5003366;28;20037;-80
2022/09/19 10:28:53;;;;;;;16.50;3.40;;;;;;;14.78;100.00;101815.19;5013933;28;20045;-80
2022/09/19 10:31:47;;;;;;;12.07;2.95;;;;;;;14.56;100.00;101808.03;5008582;28;20042;-82
2022/09/19 10:34:39;;;;;;;13.63;2.78;;;;;;;14.42;100.00;101811.56;4989009;28;20033;-81
2022/09/19 10:37:27;;;;;;;9.95;3.08;;;;;;;14.36;100.00;101819.47;4994630;28;20406;-82
2022/09/19 10:40:02;;;;;;;13.40;2.65;;;;;;;14.35;100.00;101816.84;4977895;28;20873;-81
2022/09/19 10:42:42;;;;;;;8.85;2.83;;;;;;;14.32;100.00;101820.34;4954815;28;20052;-81
2022/09/19 10:45:25;;;;;;;14.32;2.30;;;;;;;14.36;100.00;101816.81;4981509;28;20033;-81
2022/09/19 10:48:01;;;;;;;14.65;2.40;;;;;;;14.43;100.00;101817.72;5024636;28;20045;-81
2022/09/19 10:50:31;;;;;;;7.20;2.13;;;;;;;14.49;100.00;101822.16;4978447;28;20042;-80
2022/09/19 10:53:22;;;;;;;9.73;2.23;;;;;;;14.54;100.00;101821.28;4981454;28;20052;-81
2022/09/19 10:55:52;;;;;;;10.88;1.98;;;;;;;14.60;100.00;101817.81;4959470;28;20292;-81
2022/09/19 10:58:26;;;;;;;15.63;2.83;;;;;;;14.64;100.00;101822.22;4994016;28;20045;-79
2022/09/19 11:01:08;;;;;;;5.90;1.70;;;;;;;14.74;100.00;101815.16;4976602;28;20046;-81
2022/09/19 11:04:01;;;;;;;9.52;1.85;;;;;;;14.84;100.00;101811.66;4991979;28;20044;-80
2022/09/19 11:06:32;;;;;;;7.53;2.38;;;;;;;14.97;100.00;101816.09;4980502;28;20029;-80
2022/09/19 11:09:22;;;;;;;10.65;2.78;;;;;;;15.14;100.00;101826.72;5029854;28;20045;-79
2022/09/19 11:11:51;;;;;;;8.57;2.00;;;;;;;15.31;100.00;101824.03;4964027;28;20041;-81
2022/09/19 11:14:32;;;;;;;9.43;2.38;;;;;;;15.47;100.00;101832.88;4996461;28;20049;-80
2022/09/19 11:17:13;;;;;;;9.95;2.40;;;;;;;15.67;100.00;101822.22;5013542;28;20041;-81
2022/09/19 11:19:46;;;;;;;7.32;1.80;;;;;;;15.81;100.00;101818.66;4985799;28;20272;-80
2022/09/19 11:22:53;;;;;;;8.65;1.98;;;;;;;15.87;99.02;101829.28;5005718;28;20026;-81
2022/09/19 11:25:36;;;;;;;11.32;2.95;;;;;;;15.90;95.14;101823.97;5004288;28;20342;-81
2022/09/19 11:28:27;;;;;;;7.13;1.92;;;;;;;15.94;94.44;101829.25;4981620;28;20533;-81
2022/09/19 11:31:17;;;;;;;8.77;2.30;;;;;;;16.00;96.39;101819.50;5010981;28;20049;-81
2022/09/19 11:34:41;;;;;;;10.48;2.40;;;;;;;16.07;94.38;101827.44;5011580;28;20060;-81
2022/09/19 11:38:00;;;;;;;7.80;1.70;;;;;;;16.21;95.98;101823.81;4983833;28;20064;-81
2022/09/19 11:40:46;;;;;;;11.43;2.33;;;;;;;16.24;93.54;101823.78;4997296;28;20418;-80
2022/09/19 11:43:59;;;;;;;14.88;2.70;;;;;;;16.22;89.58;101834.47;4977284;28;20038;-79
2022/09/19 11:46:55;;;;;;;6.47;1.60;;;;;;;16.27;89.93;101822.00;5007003;28;20745;-80
2022/09/19 11:49:53;;;;;;;6.05;1.35;;;;;;;16.30;87.44;101829.97;4987333;28;20045;-80
2022/09/19 11:52:47;;;;;;;11.80;1.88;;;;;;;16.34;86.60;101817.56;4992564;28;20018;-80
2022/09/19 11:55:36;;;;;;;8.18;2.20;;;;;;;16.42;86.70;101822.84;5008613;28;20052;-79
2022/09/19 11:58:11;;;;;;;11.48;1.90;;;;;;;16.53;92.74;101826.31;4969262;28;20506;-81
2022/09/19 12:01:05;;;;;;;9.38;1.92;;;;;;;16.66;93.84;101825.34;4980797;28;20115;-80
2022/09/19 12:04:03;;;;;;;12.00;3.20;;;;;;;16.73;91.23;101819.09;5005386;28;20041;-79
2022/09/19 12:07:12;;;;;;;11.30;2.42;;;;;;;16.85;89.38;101820.81;5000149;28;20263;-79
2022/09/19 12:10:08;;;;;;;8.32;1.90;;;;;;;16.94;92.61;101819.88;5017716;28;20258;-79
2022/09/19 12:12:43;;;;;;;10.65;1.92;;;;;;;16.95;90.36;101829.59;4989476;28;20084;-80
2022/09/19 12:15:28;;;;;;;8.15;2.15;;;;;;;16.95;89.58;101826.94;4962400;28;20033;-81
2022/09/19 12:18:17;;;;;;;11.13;2.65;;;;;;;17.02;88.03;101823.34;5014198;28;20144;-81
2022/09/19 12:20:57;;;;;;;9.77;2.13;;;;;;;17.01;88.91;101826.88;4999604;28;20060;-80
2022/09/19 12:26:59;;;;;;;9.75;2.15;;;;;;;16.86;85.65;101824.34;5010104;28;20052;-79
2022/09/19 12:29:48;;;;;;;9.27;2.55;;;;;;;16.88;82.13;101825.22;4956041;28;20064;-79